sensor_id;sensor_type;location;lat;lon;timestamp;P1;durP1;ratioP1;P2;durP2;ratioP2
18726;SDS011;9492;51.888;5.186;2022-09-21T00:00:46;2.53;;;2.13;;
18726;SDS011;9492;51.888;5.186;2022-09-21T00:03:13;3.43;;;2.17;;
18726;SDS011;9492;51.888;5.186;2022-09-21T00:05:39;2.80;;;2.07;;
18726;SDS011;9492;51.888;5.186;2022-09-21T00:08:05;2.50;;;2.20;;
18726;SDS011;9492;51.888;5.186;2022-09-21T00:10:32;4.50;;;2.20;;
18726;SDS011;9492;51.888;5.186;2022-09-21T00:12:58;2.33;;;1.83;;
18726;SDS011;9492;51.888;5.186;2022-09-21T00:15:27;6.43;;;2.57;;
18726;SDS011;9492;51.888;5.186;2022-09-21T00:17:54;2.77;;;2.20;;
18726;SDS011;9492;51.888;5.186;2022-09-21T00:20:21;2.80;;;2.10;;
18726;SDS011;9492;51.888;5.186;2022-09-21T00:22:48;3.37;;;2.30;;
18726;SDS011;9492;51.888;5.186;2022-09-21T00:25:15;4.27;;;2.43;;
18726;SDS011;9492;51.888;5.186;2022-09-21T00:27:41;2.43;;;2.23;;
18726;SDS011;9492;51.888;5.186;2022-09-21T00:30:07;2.23;;;2.00;;
18726;SDS011;9492;51.888;5.186;2022-09-21T00:32:35;3.67;;;2.63;;
18726;SDS011;9492;51.888;5.186;2022-09-21T00:35:02;2.67;;;2.47;;
18726;SDS011;9492;51.888;5.186;2022-09-21T00:37:29;2.60;;;2.40;;
18726;SDS011;9492;51.888;5.186;2022-09-21T00:39:55;4.17;;;2.50;;
18726;SDS011;9492;51.888;5.186;2022-09-21T00:42:23;4.17;;;2.67;;
18726;SDS011;9492;51.888;5.186;2022-09-21T00:44:50;3.03;;;2.50;;
18726;SDS011;9492;51.888;5.186;2022-09-21T00:47:18;3.50;;;2.30;;
18726;SDS011;9492;51.888;5.186;2022-09-21T00:49:46;2.97;;;2.37;;
18726;SDS011;9492;51.888;5.186;2022-09-21T00:52:16;2.80;;;2.30;;
18726;SDS011;9492;51.888;5.186;2022-09-21T00:54:44;2.50;;;2.30;;
18726;SDS011;9492;51.888;5.186;2022-09-21T00:57:11;2.70;;;2.00;;
18726;SDS011;9492;51.888;5.186;2022-09-21T00:59:38;2.23;;;2.03;;
18726;SDS011;9492;51.888;5.186;2022-09-21T01:02:06;3.33;;;2.30;;
18726;SDS011;9492;51.888;5.186;2022-09-21T01:04:33;3.23;;;2.37;;
18726;SDS011;9492;51.888;5.186;2022-09-21T01:07:01;3.80;;;2.30;;
18726;SDS011;9492;51.888;5.186;2022-09-21T01:09:29;2.83;;;2.63;;
18726;SDS011;9492;51.888;5.186;2022-09-21T01:17:23;2.90;;;2.50;;
18726;SDS011;9492;51.888;5.186;2022-09-21T01:29:40;2.40;;;2.20;;
18726;SDS011;9492;51.888;5.186;2022-09-21T01:32:08;2.13;;;1.93;;
18726;SDS011;9492;51.888;5.186;2022-09-21T01:34:58;2.57;;;2.37;;
18726;SDS011;9492;51.888;5.186;2022-09-21T01:37:27;2.00;;;1.90;;
18726;SDS011;9492;51.888;5.186;2022-09-21T01:39:54;3.07;;;2.00;;
18726;SDS011;9492;51.888;5.186;2022-09-21T01:42:21;3.30;;;2.10;;
18726;SDS011;9492;51.888;5.186;2022-09-21T01:44:49;2.60;;;2.40;;
18726;SDS011;9492;51.888;5.186;2022-09-21T01:47:15;3.73;;;2.53;;
18726;SDS011;9492;51.888;5.186;2022-09-21T01:49:46;3.43;;;2.40;;
18726;SDS011;9492;51.888;5.186;2022-09-21T01:52:17;4.70;;;2.50;;
18726;SDS011;9492;51.888;5.186;2022-09-21T01:54:46;4.83;;;2.90;;
18726;SDS011;9492;51.888;5.186;2022-09-21T01:57:18;5.93;;;2.73;;
18726;SDS011;9492;51.888;5.186;2022-09-21T01:59:53;2.90;;;2.70;;
18726;SDS011;9492;51.888;5.186;2022-09-21T02:02:40;4.17;;;2.53;;
18726;SDS011;9492;51.888;5.186;2022-09-21T02:05:07;3.37;;;2.60;;
18726;SDS011;9492;51.888;5.186;2022-09-21T02:07:33;2.67;;;2.37;;
18726;SDS011;9492;51.888;5.186;2022-09-21T02:10:01;2.90;;;2.20;;
18726;SDS011;9492;51.888;5.186;2022-09-21T02:12:27;2.73;;;2.07;;
18726;SDS011;9492;51.888;5.186;2022-09-21T02:14:55;2.50;;;2.30;;
18726;SDS011;9492;51.888;5.186;2022-09-21T02:17:26;2.80;;;2.10;;
18726;SDS011;9492;51.888;5.186;2022-09-21T02:20:39;4.70;;;2.13;;
18726;SDS011;9492;51.888;5.186;2022-09-21T02:25:20;3.10;;;2.40;;
18726;SDS011;9492;51.888;5.186;2022-09-21T02:27:53;1.80;;;1.53;;
18726;SDS011;9492;51.888;5.186;2022-09-21T02:30:24;2.73;;;2.10;;
18726;SDS011;9492;51.888;5.186;2022-09-21T02:43:33;1.53;;;1.40;;
18726;SDS011;9492;51.888;5.186;2022-09-21T02:46:12;2.03;;;1.83;;
18726;SDS011;9492;51.888;5.186;2022-09-21T02:51:09;2.07;;;1.87;;
18726;SDS011;9492;51.888;5.186;2022-09-21T02:53:36;2.07;;;1.60;;
18726;SDS011;9492;51.888;5.186;2022-09-21T02:56:03;2.07;;;1.60;;
18726;SDS011;9492;51.888;5.186;2022-09-21T02:58:33;1.77;;;1.67;;
18726;SDS011;9492;51.888;5.186;2022-09-21T03:01:00;1.90;;;1.70;;
18726;SDS011;9492;51.888;5.186;2022-09-21T03:03:26;2.03;;;1.93;;
18726;SDS011;9492;51.888;5.186;2022-09-21T03:05:53;1.97;;;1.83;;
18726;SDS011;9492;51.888;5.186;2022-09-21T03:08:20;2.53;;;1.80;;
18726;SDS011;9492;51.888;5.186;2022-09-21T03:10:46;2.87;;;1.50;;
18726;SDS011;9492;51.888;5.186;2022-09-21T03:13:14;1.60;;;1.50;;
18726;SDS011;9492;51.888;5.186;2022-09-21T03:15:41;1.80;;;1.70;;
18726;SDS011;9492;51.888;5.186;2022-09-21T03:18:08;2.10;;;1.80;;
18726;SDS011;9492;51.888;5.186;2022-09-21T03:20:35;1.83;;;1.60;;
18726;SDS011;9492;51.888;5.186;2022-09-21T03:23:01;2.50;;;1.97;;
18726;SDS011;9492;51.888;5.186;2022-09-21T03:25:27;2.33;;;1.63;;
18726;SDS011;9492;51.888;5.186;2022-09-21T03:27:54;2.63;;;1.67;;
18726;SDS011;9492;51.888;5.186;2022-09-21T03:30:20;3.20;;;1.70;;
18726;SDS011;9492;51.888;5.186;2022-09-21T03:32:50;1.93;;;1.73;;
18726;SDS011;9492;51.888;5.186;2022-09-21T03:35:17;1.70;;;1.60;;
18726;SDS011;9492;51.888;5.186;2022-09-21T03:37:43;1.70;;;1.53;;
18726;SDS011;9492;51.888;5.186;2022-09-21T03:40:10;2.97;;;1.60;;
18726;SDS011;9492;51.888;5.186;2022-09-21T03:42:37;2.30;;;1.60;;
18726;SDS011;9492;51.888;5.186;2022-09-21T03:45:03;2.50;;;1.80;;
18726;SDS011;9492;51.888;5.186;2022-09-21T03:47:29;1.33;;;1.20;;
18726;SDS011;9492;51.888;5.186;2022-09-21T03:49:55;1.67;;;1.57;;
18726;SDS011;9492;51.888;5.186;2022-09-21T03:52:21;1.33;;;1.30;;
18726;SDS011;9492;51.888;5.186;2022-09-21T03:54:47;1.60;;;1.50;;
18726;SDS011;9492;51.888;5.186;2022-09-21T03:57:13;1.27;;;1.17;;
18726;SDS011;9492;51.888;5.186;2022-09-21T03:59:39;2.43;;;1.37;;
18726;SDS011;9492;51.888;5.186;2022-09-21T04:02:06;1.10;;;1.10;;
18726;SDS011;9492;51.888;5.186;2022-09-21T04:04:32;1.23;;;1.20;;
18726;SDS011;9492;51.888;5.186;2022-09-21T04:06:58;1.40;;;1.30;;
18726;SDS011;9492;51.888;5.186;2022-09-21T04:09:24;1.77;;;1.30;;
18726;SDS011;9492;51.888;5.186;2022-09-21T04:11:50;1.23;;;1.13;;
18726;SDS011;9492;51.888;5.186;2022-09-21T04:14:18;1.43;;;1.10;;
18726;SDS011;9492;51.888;5.186;2022-09-21T04:16:44;1.73;;;1.00;;
18726;SDS011;9492;51.888;5.186;2022-09-21T04:19:10;2.40;;;1.00;;
18726;SDS011;9492;51.888;5.186;2022-09-21T04:21:36;1.33;;;1.10;;
18726;SDS011;9492;51.888;5.186;2022-09-21T04:24:02;3.20;;;1.20;;
18726;SDS011;9492;51.888;5.186;2022-09-21T04:26:30;1.73;;;1.30;;
18726;SDS011;9492;51.888;5.186;2022-09-21T04:28:56;2.37;;;1.70;;
18726;SDS011;9492;51.888;5.186;2022-09-21T04:31:23;3.20;;;1.70;;
18726;SDS011;9492;51.888;5.186;2022-09-21T04:33:49;1.60;;;1.47;;
18726;SDS011;9492;51.888;5.186;2022-09-21T04:36:16;2.07;;;1.97;;
18726;SDS011;9492;51.888;5.186;2022-09-21T04:38:42;2.03;;;1.67;;
18726;SDS011;9492;51.888;5.186;2022-09-21T04:41:09;2.00;;;1.80;;
18726;SDS011;9492;51.888;5.186;2022-09-21T04:43:35;4.10;;;1.63;;
18726;SDS011;9492;51.888;5.186;2022-09-21T04:46:07;2.17;;;1.70;;
18726;SDS011;9492;51.888;5.186;2022-09-21T04:48:33;2.80;;;1.50;;
18726;SDS011;9492;51.888;5.186;2022-09-21T04:51:00;1.50;;;1.27;;
18726;SDS011;9492;51.888;5.186;2022-09-21T04:53:27;1.87;;;1.67;;
18726;SDS011;9492;51.888;5.186;2022-09-21T04:55:53;1.30;;;1.20;;
18726;SDS011;9492;51.888;5.186;2022-09-21T04:58:19;2.50;;;2.10;;
18726;SDS011;9492;51.888;5.186;2022-09-21T05:00:48;4.17;;;2.57;;
18726;SDS011;9492;51.888;5.186;2022-09-21T05:03:15;1.93;;;1.83;;
18726;SDS011;9492;51.888;5.186;2022-09-21T05:05:45;2.10;;;1.90;;
18726;SDS011;9492;51.888;5.186;2022-09-21T05:08:11;3.53;;;2.57;;
18726;SDS011;9492;51.888;5.186;2022-09-21T05:10:37;2.73;;;2.33;;
18726;SDS011;9492;51.888;5.186;2022-09-21T05:13:03;2.57;;;2.20;;
18726;SDS011;9492;51.888;5.186;2022-09-21T05:15:29;4.23;;;2.00;;
18726;SDS011;9492;51.888;5.186;2022-09-21T05:17:55;2.27;;;2.00;;
18726;SDS011;9492;51.888;5.186;2022-09-21T05:20:21;3.07;;;2.20;;
18726;SDS011;9492;51.888;5.186;2022-09-21T05:22:47;2.33;;;1.90;;
18726;SDS011;9492;51.888;5.186;2022-09-21T05:25:13;3.07;;;2.20;;
18726;SDS011;9492;51.888;5.186;2022-09-21T05:27:39;1.60;;;1.50;;
18726;SDS011;9492;51.888;5.186;2022-09-21T05:30:05;3.27;;;1.90;;
18726;SDS011;9492;51.888;5.186;2022-09-21T05:35:23;2.73;;;2.10;;
18726;SDS011;9492;51.888;5.186;2022-09-21T05:38:29;2.33;;;1.70;;
18726;SDS011;9492;51.888;5.186;2022-09-21T05:40:30;4.07;;;2.03;;
18726;SDS011;9492;51.888;5.186;2022-09-21T05:42:56;2.63;;;2.30;;
18726;SDS011;9492;51.888;5.186;2022-09-21T05:45:22;4.07;;;2.20;;
18726;SDS011;9492;51.888;5.186;2022-09-21T05:50:27;2.33;;;1.80;;
18726;SDS011;9492;51.888;5.186;2022-09-21T05:55:56;2.50;;;1.80;;
18726;SDS011;9492;51.888;5.186;2022-09-21T06:01:14;2.27;;;1.90;;
18726;SDS011;9492;51.888;5.186;2022-09-21T06:03:44;2.10;;;1.93;;
18726;SDS011;9492;51.888;5.186;2022-09-21T06:06:12;3.00;;;1.77;;
18726;SDS011;9492;51.888;5.186;2022-09-21T06:08:38;2.70;;;1.70;;
18726;SDS011;9492;51.888;5.186;2022-09-21T06:11:04;2.20;;;2.00;;
18726;SDS011;9492;51.888;5.186;2022-09-21T06:13:30;2.70;;;1.90;;
18726;SDS011;9492;51.888;5.186;2022-09-21T06:16:00;2.03;;;1.57;;
18726;SDS011;9492;51.888;5.186;2022-09-21T06:18:26;1.80;;;1.70;;
18726;SDS011;9492;51.888;5.186;2022-09-21T06:20:52;1.73;;;1.60;;
18726;SDS011;9492;51.888;5.186;2022-09-21T06:23:18;1.77;;;1.60;;
18726;SDS011;9492;51.888;5.186;2022-09-21T06:25:44;1.73;;;1.60;;
18726;SDS011;9492;51.888;5.186;2022-09-21T06:28:15;1.93;;;1.60;;
18726;SDS011;9492;51.888;5.186;2022-09-21T06:30:41;2.63;;;1.77;;
18726;SDS011;9492;51.888;5.186;2022-09-21T06:33:08;1.70;;;1.60;;
18726;SDS011;9492;51.888;5.186;2022-09-21T06:35:35;3.47;;;2.07;;
18726;SDS011;9492;51.888;5.186;2022-09-21T06:38:02;2.00;;;1.80;;
18726;SDS011;9492;51.888;5.186;2022-09-21T06:40:29;3.37;;;2.33;;
18726;SDS011;9492;51.888;5.186;2022-09-21T06:42:56;3.10;;;2.13;;
18726;SDS011;9492;51.888;5.186;2022-09-21T06:45:22;2.20;;;1.50;;
18726;SDS011;9492;51.888;5.186;2022-09-21T06:47:48;2.60;;;1.80;;
18726;SDS011;9492;51.888;5.186;2022-09-21T06:50:14;1.87;;;1.50;;
18726;SDS011;9492;51.888;5.186;2022-09-21T06:52:40;2.30;;;1.80;;
18726;SDS011;9492;51.888;5.186;2022-09-21T06:55:07;2.53;;;1.87;;
18726;SDS011;9492;51.888;5.186;2022-09-21T06:57:34;3.57;;;2.10;;
18726;SDS011;9492;51.888;5.186;2022-09-21T07:00:02;2.20;;;1.70;;
18726;SDS011;9492;51.888;5.186;2022-09-21T07:02:28;6.87;;;2.77;;
18726;SDS011;9492;51.888;5.186;2022-09-21T07:04:54;2.47;;;1.97;;
18726;SDS011;9492;51.888;5.186;2022-09-21T07:07:20;3.07;;;1.97;;
18726;SDS011;9492;51.888;5.186;2022-09-21T07:09:46;2.77;;;1.90;;
18726;SDS011;9492;51.888;5.186;2022-09-21T07:12:12;5.87;;;2.40;;
18726;SDS011;9492;51.888;5.186;2022-09-21T07:14:39;3.17;;;2.03;;
18726;SDS011;9492;51.888;5.186;2022-09-21T07:17:08;3.53;;;1.90;;
18726;SDS011;9492;51.888;5.186;2022-09-21T07:19:34;4.13;;;2.00;;
18726;SDS011;9492;51.888;5.186;2022-09-21T07:22:00;5.47;;;2.13;;
18726;SDS011;9492;51.888;5.186;2022-09-21T07:24:27;2.33;;;1.93;;
18726;SDS011;9492;51.888;5.186;2022-09-21T07:26:53;5.27;;;2.40;;
18726;SDS011;9492;51.888;5.186;2022-09-21T07:29:19;3.93;;;2.53;;
18726;SDS011;9492;51.888;5.186;2022-09-21T07:31:45;5.30;;;2.20;;
18726;SDS011;9492;51.888;5.186;2022-09-21T07:34:12;5.43;;;2.70;;
18726;SDS011;9492;51.888;5.186;2022-09-21T07:36:38;3.83;;;2.33;;
18726;SDS011;9492;51.888;5.186;2022-09-21T07:39:04;5.03;;;2.17;;
18726;SDS011;9492;51.888;5.186;2022-09-21T07:41:30;3.93;;;1.90;;
18726;SDS011;9492;51.888;5.186;2022-09-21T07:43:57;6.67;;;2.20;;
18726;SDS011;9492;51.888;5.186;2022-09-21T07:46:23;3.07;;;1.90;;
18726;SDS011;9492;51.888;5.186;2022-09-21T07:48:51;2.83;;;2.27;;
18726;SDS011;9492;51.888;5.186;2022-09-21T07:51:18;4.77;;;1.80;;
18726;SDS011;9492;51.888;5.186;2022-09-21T07:53:44;3.47;;;1.50;;
18726;SDS011;9492;51.888;5.186;2022-09-21T07:56:14;5.10;;;1.90;;
18726;SDS011;9492;51.888;5.186;2022-09-21T07:58:40;2.30;;;1.80;;
18726;SDS011;9492;51.888;5.186;2022-09-21T08:01:25;3.30;;;1.90;;
18726;SDS011;9492;51.888;5.186;2022-09-21T08:03:52;3.27;;;1.70;;
18726;SDS011;9492;51.888;5.186;2022-09-21T08:06:19;2.67;;;1.57;;
18726;SDS011;9492;51.888;5.186;2022-09-21T08:08:46;4.40;;;1.67;;
18726;SDS011;9492;51.888;5.186;2022-09-21T08:11:14;3.67;;;1.77;;
18726;SDS011;9492;51.888;5.186;2022-09-21T08:13:40;5.87;;;2.07;;
18726;SDS011;9492;51.888;5.186;2022-09-21T08:16:06;6.90;;;2.23;;
18726;SDS011;9492;51.888;5.186;2022-09-21T08:18:35;4.93;;;2.17;;
18726;SDS011;9492;51.888;5.186;2022-09-21T08:21:01;6.40;;;2.30;;
18726;SDS011;9492;51.888;5.186;2022-09-21T08:23:27;4.93;;;2.20;;
18726;SDS011;9492;51.888;5.186;2022-09-21T08:26:01;2.53;;;2.10;;
18726;SDS011;9492;51.888;5.186;2022-09-21T08:28:29;4.23;;;1.60;;
18726;SDS011;9492;51.888;5.186;2022-09-21T08:30:59;4.73;;;2.33;;
18726;SDS011;9492;51.888;5.186;2022-09-21T08:33:25;4.87;;;2.13;;
18726;SDS011;9492;51.888;5.186;2022-09-21T08:35:55;3.27;;;2.03;;
18726;SDS011;9492;51.888;5.186;2022-09-21T08:38:21;4.60;;;2.00;;
18726;SDS011;9492;51.888;5.186;2022-09-21T08:40:47;3.63;;;1.60;;
18726;SDS011;9492;51.888;5.186;2022-09-21T08:46:17;4.47;;;2.13;;
18726;SDS011;9492;51.888;5.186;2022-09-21T08:48:49;3.10;;;1.97;;
18726;SDS011;9492;51.888;5.186;2022-09-21T08:51:22;3.27;;;1.80;;
18726;SDS011;9492;51.888;5.186;2022-09-21T08:53:49;4.23;;;1.83;;
18726;SDS011;9492;51.888;5.186;2022-09-21T08:56:24;3.43;;;1.63;;
18726;SDS011;9492;51.888;5.186;2022-09-21T08:58:51;3.77;;;1.50;;
18726;SDS011;9492;51.888;5.186;2022-09-21T09:04:08;2.60;;;1.50;;
18726;SDS011;9492;51.888;5.186;2022-09-21T09:06:41;3.13;;;1.40;;
18726;SDS011;9492;51.888;5.186;2022-09-21T09:17:27;4.53;;;1.50;;
18726;SDS011;9492;51.888;5.186;2022-09-21T09:22:18;2.20;;;1.00;;
18726;SDS011;9492;51.888;5.186;2022-09-21T09:24:50;2.57;;;1.40;;
18726;SDS011;9492;51.888;5.186;2022-09-21T09:27:18;4.47;;;1.53;;
18726;SDS011;9492;51.888;5.186;2022-09-21T09:32:26;3.53;;;1.40;;
18726;SDS011;9492;51.888;5.186;2022-09-21T09:34:56;3.60;;;1.40;;
18726;SDS011;9492;51.888;5.186;2022-09-21T09:37:29;2.23;;;0.87;;
18726;SDS011;9492;51.888;5.186;2022-09-21T09:39:57;2.10;;;1.20;;
18726;SDS011;9492;51.888;5.186;2022-09-21T09:42:40;1.20;;;1.10;;
18726;SDS011;9492;51.888;5.186;2022-09-21T09:45:11;3.60;;;1.80;;
18726;SDS011;9492;51.888;5.186;2022-09-21T09:50:32;3.13;;;1.40;;
18726;SDS011;9492;51.888;5.186;2022-09-21T09:53:08;2.53;;;1.47;;
18726;SDS011;9492;51.888;5.186;2022-09-21T09:55:37;2.20;;;1.37;;
18726;SDS011;9492;51.888;5.186;2022-09-21T09:58:03;3.13;;;1.50;;
18726;SDS011;9492;51.888;5.186;2022-09-21T10:00:33;5.13;;;1.37;;
18726;SDS011;9492;51.888;5.186;2022-09-21T10:02:59;1.70;;;1.00;;
18726;SDS011;9492;51.888;5.186;2022-09-21T10:05:32;1.53;;;1.00;;
18726;SDS011;9492;51.888;5.186;2022-09-21T10:07:59;5.47;;;1.63;;
18726;SDS011;9492;51.888;5.186;2022-09-21T10:10:30;3.23;;;1.27;;
18726;SDS011;9492;51.888;5.186;2022-09-21T10:13:10;0.93;;;0.90;;
18726;SDS011;9492;51.888;5.186;2022-09-21T10:15:40;2.57;;;1.47;;
18726;SDS011;9492;51.888;5.186;2022-09-21T10:18:14;2.57;;;1.10;;
18726;SDS011;9492;51.888;5.186;2022-09-21T10:20:51;2.73;;;0.97;;
18726;SDS011;9492;51.888;5.186;2022-09-21T10:23:18;1.33;;;0.90;;
18726;SDS011;9492;51.888;5.186;2022-09-21T10:25:44;2.77;;;1.00;;
18726;SDS011;9492;51.888;5.186;2022-09-21T10:28:17;2.00;;;0.90;;
18726;SDS011;9492;51.888;5.186;2022-09-21T10:30:44;1.60;;;1.00;;
18726;SDS011;9492;51.888;5.186;2022-09-21T10:33:19;2.53;;;0.70;;
18726;SDS011;9492;51.888;5.186;2022-09-21T10:35:50;1.57;;;1.00;;
18726;SDS011;9492;51.888;5.186;2022-09-21T10:38:17;1.87;;;1.23;;
18726;SDS011;9492;51.888;5.186;2022-09-21T10:40:44;2.20;;;0.83;;
18726;SDS011;9492;51.888;5.186;2022-09-21T10:45:52;1.73;;;1.00;;
18726;SDS011;9492;51.888;5.186;2022-09-21T10:48:20;3.00;;;1.00;;
18726;SDS011;9492;51.888;5.186;2022-09-21T10:50:47;3.30;;;1.10;;
18726;SDS011;9492;51.888;5.186;2022-09-21T10:55:56;2.33;;;0.97;;
18726;SDS011;9492;51.888;5.186;2022-09-21T10:58:23;2.47;;;1.07;;
18726;SDS011;9492;51.888;5.186;2022-09-21T11:00:50;3.37;;;1.20;;
18726;SDS011;9492;51.888;5.186;2022-09-21T11:06:00;2.80;;;0.90;;
18726;SDS011;9492;51.888;5.186;2022-09-21T11:17:06;3.83;;;1.23;;
18726;SDS011;9492;51.888;5.186;2022-09-21T11:19:36;1.63;;;0.90;;
18726;SDS011;9492;51.888;5.186;2022-09-21T11:22:08;2.27;;;0.90;;
18726;SDS011;9492;51.888;5.186;2022-09-21T11:27:09;1.60;;;0.93;;
18726;SDS011;9492;51.888;5.186;2022-09-21T11:29:43;3.70;;;1.70;;
18726;SDS011;9492;51.888;5.186;2022-09-21T11:32:23;3.43;;;1.30;;
18726;SDS011;9492;51.888;5.186;2022-09-21T11:35:01;1.57;;;0.80;;
18726;SDS011;9492;51.888;5.186;2022-09-21T11:45:10;4.63;;;1.07;;
18726;SDS011;9492;51.888;5.186;2022-09-21T12:00:22;1.10;;;0.60;;
18726;SDS011;9492;51.888;5.186;2022-09-21T12:03:06;2.77;;;0.97;;
18726;SDS011;9492;51.888;5.186;2022-09-21T12:05:47;2.37;;;0.80;;
18726;SDS011;9492;51.888;5.186;2022-09-21T12:08:25;1.73;;;0.80;;
18726;SDS011;9492;51.888;5.186;2022-09-21T12:11:17;3.13;;;1.00;;
18726;SDS011;9492;51.888;5.186;2022-09-21T12:21:33;1.33;;;0.80;;
18726;SDS011;9492;51.888;5.186;2022-09-21T12:24:22;3.23;;;0.80;;
18726;SDS011;9492;51.888;5.186;2022-09-21T12:26:48;1.63;;;1.10;;
18726;SDS011;9492;51.888;5.186;2022-09-21T12:31:47;2.70;;;1.00;;
18726;SDS011;9492;51.888;5.186;2022-09-21T12:34:17;1.13;;;0.97;;
18726;SDS011;9492;51.888;5.186;2022-09-21T12:39:38;2.63;;;1.03;;
18726;SDS011;9492;51.888;5.186;2022-09-21T12:42:18;2.07;;;0.90;;
18726;SDS011;9492;51.888;5.186;2022-09-21T12:44:48;2.30;;;0.80;;
18726;SDS011;9492;51.888;5.186;2022-09-21T12:47:44;1.63;;;1.20;;
18726;SDS011;9492;51.888;5.186;2022-09-21T12:50:57;2.33;;;1.23;;
18726;SDS011;9492;51.888;5.186;2022-09-21T12:52:58;2.67;;;0.80;;
18726;SDS011;9492;51.888;5.186;2022-09-21T12:55:31;1.17;;;0.70;;
18726;SDS011;9492;51.888;5.186;2022-09-21T13:00:30;3.40;;;1.07;;
18726;SDS011;9492;51.888;5.186;2022-09-21T13:03:03;2.10;;;0.73;;
18726;SDS011;9492;51.888;5.186;2022-09-21T13:05:35;1.67;;;0.70;;
18726;SDS011;9492;51.888;5.186;2022-09-21T13:08:11;2.17;;;0.80;;
18726;SDS011;9492;51.888;5.186;2022-09-21T13:10:57;2.07;;;0.63;;
18726;SDS011;9492;51.888;5.186;2022-09-21T13:15:51;3.13;;;0.97;;
18726;SDS011;9492;51.888;5.186;2022-09-21T13:18:28;1.77;;;0.90;;
18726;SDS011;9492;51.888;5.186;2022-09-21T13:20:59;1.63;;;0.90;;
18726;SDS011;9492;51.888;5.186;2022-09-21T13:23:34;1.20;;;0.73;;
18726;SDS011;9492;51.888;5.186;2022-09-21T13:26:06;2.40;;;0.90;;
18726;SDS011;9492;51.888;5.186;2022-09-21T13:34:05;1.50;;;0.60;;
18726;SDS011;9492;51.888;5.186;2022-09-21T13:36:34;2.60;;;0.90;;
18726;SDS011;9492;51.888;5.186;2022-09-21T13:39:19;1.40;;;0.63;;
18726;SDS011;9492;51.888;5.186;2022-09-21T13:41:45;2.33;;;0.80;;
18726;SDS011;9492;51.888;5.186;2022-09-21T13:44:35;1.60;;;0.70;;
18726;SDS011;9492;51.888;5.186;2022-09-21T13:47:02;1.60;;;0.80;;
18726;SDS011;9492;51.888;5.186;2022-09-21T13:49:38;1.27;;;0.90;;
18726;SDS011;9492;51.888;5.186;2022-09-21T13:57:47;2.33;;;0.90;;
18726;SDS011;9492;51.888;5.186;2022-09-21T14:00:35;1.67;;;0.73;;
18726;SDS011;9492;51.888;5.186;2022-09-21T14:02:53;1.50;;;0.80;;
18726;SDS011;9492;51.888;5.186;2022-09-21T14:08:17;2.10;;;0.80;;
18726;SDS011;9492;51.888;5.186;2022-09-21T14:10:54;1.27;;;0.97;;
18726;SDS011;9492;51.888;5.186;2022-09-21T14:13:34;1.60;;;0.80;;
18726;SDS011;9492;51.888;5.186;2022-09-21T14:18:46;1.33;;;0.60;;
18726;SDS011;9492;51.888;5.186;2022-09-21T14:21:12;2.80;;;1.00;;
18726;SDS011;9492;51.888;5.186;2022-09-21T14:28:57;2.33;;;1.00;;
18726;SDS011;9492;51.888;5.186;2022-09-21T14:31:32;3.70;;;1.00;;
18726;SDS011;9492;51.888;5.186;2022-09-21T14:33:59;1.80;;;0.80;;
18726;SDS011;9492;51.888;5.186;2022-09-21T14:36:37;1.07;;;0.83;;
18726;SDS011;9492;51.888;5.186;2022-09-21T14:39:12;2.80;;;0.97;;
18726;SDS011;9492;51.888;5.186;2022-09-21T14:41:40;0.93;;;0.80;;
18726;SDS011;9492;51.888;5.186;2022-09-21T14:44:13;1.30;;;0.73;;
18726;SDS011;9492;51.888;5.186;2022-09-21T14:46:48;3.10;;;0.80;;
18726;SDS011;9492;51.888;5.186;2022-09-21T15:02:11;1.10;;;0.80;;
18726;SDS011;9492;51.888;5.186;2022-09-21T15:15:31;1.43;;;0.60;;
18726;SDS011;9492;51.888;5.186;2022-09-21T15:17:59;3.00;;;0.90;;
18726;SDS011;9492;51.888;5.186;2022-09-21T15:20:28;1.30;;;0.73;;
18726;SDS011;9492;51.888;5.186;2022-09-21T15:22:56;2.47;;;0.93;;
18726;SDS011;9492;51.888;5.186;2022-09-21T15:25:27;3.13;;;0.90;;
18726;SDS011;9492;51.888;5.186;2022-09-21T15:27:55;2.00;;;0.70;;
18726;SDS011;9492;51.888;5.186;2022-09-21T15:30:22;1.17;;;0.57;;
18726;SDS011;9492;51.888;5.186;2022-09-21T15:32:51;2.67;;;1.00;;
18726;SDS011;9492;51.888;5.186;2022-09-21T15:35:22;2.30;;;0.83;;
18726;SDS011;9492;51.888;5.186;2022-09-21T15:37:50;2.40;;;1.10;;
18726;SDS011;9492;51.888;5.186;2022-09-21T15:40:22;2.67;;;0.70;;
18726;SDS011;9492;51.888;5.186;2022-09-21T15:45:47;1.40;;;0.67;;
18726;SDS011;9492;51.888;5.186;2022-09-21T15:48:18;1.67;;;0.80;;
18726;SDS011;9492;51.888;5.186;2022-09-21T15:50:45;1.63;;;0.80;;
18726;SDS011;9492;51.888;5.186;2022-09-21T15:53:23;1.07;;;0.60;;
18726;SDS011;9492;51.888;5.186;2022-09-21T15:55:50;0.90;;;0.40;;
18726;SDS011;9492;51.888;5.186;2022-09-21T15:58:37;1.83;;;0.80;;
18726;SDS011;9492;51.888;5.186;2022-09-21T16:01:13;0.87;;;0.80;;
18726;SDS011;9492;51.888;5.186;2022-09-21T16:03:39;2.40;;;1.00;;
18726;SDS011;9492;51.888;5.186;2022-09-21T16:08:46;1.43;;;0.70;;
18726;SDS011;9492;51.888;5.186;2022-09-21T16:14:24;1.83;;;0.80;;
18726;SDS011;9492;51.888;5.186;2022-09-21T16:19:41;0.80;;;0.57;;
18726;SDS011;9492;51.888;5.186;2022-09-21T16:22:11;2.10;;;0.97;;
18726;SDS011;9492;51.888;5.186;2022-09-21T16:24:43;2.70;;;0.80;;
18726;SDS011;9492;51.888;5.186;2022-09-21T16:27:13;1.63;;;1.10;;
18726;SDS011;9492;51.888;5.186;2022-09-21T16:29:40;1.77;;;0.90;;
18726;SDS011;9492;51.888;5.186;2022-09-21T16:34:46;2.43;;;0.83;;
18726;SDS011;9492;51.888;5.186;2022-09-21T16:39:48;1.27;;;0.70;;
18726;SDS011;9492;51.888;5.186;2022-09-21T16:42:14;1.10;;;0.70;;
18726;SDS011;9492;51.888;5.186;2022-09-21T16:44:40;1.37;;;0.90;;
18726;SDS011;9492;51.888;5.186;2022-09-21T16:47:16;1.30;;;1.13;;
18726;SDS011;9492;51.888;5.186;2022-09-21T16:49:49;1.90;;;1.20;;
18726;SDS011;9492;51.888;5.186;2022-09-21T16:52:23;1.80;;;1.30;;
18726;SDS011;9492;51.888;5.186;2022-09-21T16:54:49;4.33;;;1.37;;
18726;SDS011;9492;51.888;5.186;2022-09-21T16:57:15;6.77;;;1.10;;
18726;SDS011;9492;51.888;5.186;2022-09-21T16:59:41;3.90;;;1.40;;
18726;SDS011;9492;51.888;5.186;2022-09-21T17:02:08;1.33;;;0.80;;
18726;SDS011;9492;51.888;5.186;2022-09-21T17:04:36;1.57;;;1.10;;
18726;SDS011;9492;51.888;5.186;2022-09-21T17:07:02;2.57;;;1.40;;
18726;SDS011;9492;51.888;5.186;2022-09-21T17:09:35;1.30;;;1.17;;
18726;SDS011;9492;51.888;5.186;2022-09-21T17:12:08;2.23;;;1.30;;
18726;SDS011;9492;51.888;5.186;2022-09-21T17:14:35;2.37;;;1.90;;
18726;SDS011;9492;51.888;5.186;2022-09-21T17:17:03;2.83;;;2.00;;
18726;SDS011;9492;51.888;5.186;2022-09-21T17:19:32;2.37;;;1.90;;
18726;SDS011;9492;51.888;5.186;2022-09-21T17:21:58;2.13;;;1.93;;
18726;SDS011;9492;51.888;5.186;2022-09-21T17:24:24;3.90;;;1.73;;
18726;SDS011;9492;51.888;5.186;2022-09-21T17:26:50;1.20;;;1.10;;
18726;SDS011;9492;51.888;5.186;2022-09-21T17:29:18;2.00;;;1.10;;
18726;SDS011;9492;51.888;5.186;2022-09-21T17:31:47;3.60;;;1.57;;
18726;SDS011;9492;51.888;5.186;2022-09-21T17:34:22;1.73;;;1.30;;
18726;SDS011;9492;51.888;5.186;2022-09-21T17:36:49;6.87;;;1.60;;
18726;SDS011;9492;51.888;5.186;2022-09-21T17:39:15;1.60;;;1.20;;
18726;SDS011;9492;51.888;5.186;2022-09-21T17:41:44;3.53;;;1.50;;
18726;SDS011;9492;51.888;5.186;2022-09-21T17:46:55;2.00;;;1.70;;
18726;SDS011;9492;51.888;5.186;2022-09-21T17:49:23;3.60;;;1.70;;
18726;SDS011;9492;51.888;5.186;2022-09-21T17:51:49;2.83;;;1.53;;
18726;SDS011;9492;51.888;5.186;2022-09-21T17:54:34;4.07;;;1.50;;
18726;SDS011;9492;51.888;5.186;2022-09-21T17:57:11;3.23;;;1.73;;
18726;SDS011;9492;51.888;5.186;2022-09-21T17:59:42;2.97;;;1.50;;
18726;SDS011;9492;51.888;5.186;2022-09-21T18:02:18;2.63;;;1.40;;
18726;SDS011;9492;51.888;5.186;2022-09-21T18:04:45;2.47;;;1.33;;
18726;SDS011;9492;51.888;5.186;2022-09-21T18:07:11;1.37;;;1.10;;
18726;SDS011;9492;51.888;5.186;2022-09-21T18:09:38;3.10;;;1.30;;
18726;SDS011;9492;51.888;5.186;2022-09-21T18:12:29;3.10;;;1.20;;
18726;SDS011;9492;51.888;5.186;2022-09-21T18:25:15;3.77;;;2.10;;
18726;SDS011;9492;51.888;5.186;2022-09-21T18:27:41;3.90;;;2.90;;
18726;SDS011;9492;51.888;5.186;2022-09-21T18:30:11;4.70;;;3.43;;